sensor_id;sensor_type;location;lat;lon;timestamp;P1;durP1;ratioP1;P2;durP2;ratioP2
1811;SDS011;904;47.814;11.134;2023-11-19T00:00:06;3.10;;;1.95;;
1811;SDS011;904;47.814;11.134;2023-11-19T00:02:36;3.95;;;1.70;;
1811;SDS011;904;47.814;11.134;2023-11-19T00:05:06;3.50;;;2.00;;
1811;SDS011;904;47.814;11.134;2023-11-19T00:07:36;4.00;;;2.15;;
1811;SDS011;904;47.814;11.134;2023-11-19T00:10:06;3.08;;;1.88;;
1811;SDS011;904;47.814;11.134;2023-11-19T00:12:35;3.38;;;2.30;;
1811;SDS011;904;47.814;11.134;2023-11-19T00:15:06;3.33;;;2.40;;
1811;SDS011;904;47.814;11.134;2023-11-19T00:17:36;2.72;;;1.73;;
1811;SDS011;904;47.814;11.134;2023-11-19T00:20:06;3.85;;;2.50;;
1811;SDS011;904;47.814;11.134;2023-11-19T00:22:34;2.95;;;1.75;;
1811;SDS011;904;47.814;11.134;2023-11-19T00:25:01;3.30;;;1.45;;
1811;SDS011;904;47.814;11.134;2023-11-19T00:27:28;2.42;;;1.38;;
1811;SDS011;904;47.814;11.134;2023-11-19T00:29:55;2.75;;;1.67;;
1811;SDS011;904;47.814;11.134;2023-11-19T00:32:23;2.42;;;1.38;;
1811;SDS011;904;47.814;11.134;2023-11-19T00:34:50;3.08;;;1.45;;
1811;SDS011;904;47.814;11.134;2023-11-19T00:37:18;6.10;;;1.30;;
1811;SDS011;904;47.814;11.134;2023-11-19T00:39:45;2.42;;;1.23;;
1811;SDS011;904;47.814;11.134;2023-11-19T00:42:12;2.60;;;1.10;;
1811;SDS011;904;47.814;11.134;2023-11-19T00:44:39;3.50;;;1.50;;
1811;SDS011;904;47.814;11.134;2023-11-19T00:47:07;2.95;;;1.40;;
1811;SDS011;904;47.814;11.134;2023-11-19T00:49:34;2.70;;;1.35;;
1811;SDS011;904;47.814;11.134;2023-11-19T00:52:01;3.25;;;1.20;;
1811;SDS011;904;47.814;11.134;2023-11-19T00:54:29;2.85;;;1.70;;
1811;SDS011;904;47.814;11.134;2023-11-19T00:56:56;3.17;;;1.15;;
1811;SDS011;904;47.814;11.134;2023-11-19T00:59:23;2.72;;;1.30;;
1811;SDS011;904;47.814;11.134;2023-11-19T01:01:50;2.35;;;1.00;;
1811;SDS011;904;47.814;11.134;2023-11-19T01:04:17;2.13;;;1.02;;
1811;SDS011;904;47.814;11.134;2023-11-19T01:06:44;2.50;;;1.10;;
1811;SDS011;904;47.814;11.134;2023-11-19T01:09:11;2.40;;;1.10;;
1811;SDS011;904;47.814;11.134;2023-11-19T01:11:39;2.38;;;1.50;;
1811;SDS011;904;47.814;11.134;2023-11-19T01:14:05;2.67;;;1.58;;
1811;SDS011;904;47.814;11.134;2023-11-19T01:16:32;2.67;;;1.60;;
1811;SDS011;904;47.814;11.134;2023-11-19T01:18:59;1.90;;;0.90;;
1811;SDS011;904;47.814;11.134;2023-11-19T01:21:29;2.10;;;0.90;;
1811;SDS011;904;47.814;11.134;2023-11-19T01:23:56;2.33;;;0.90;;
1811;SDS011;904;47.814;11.134;2023-11-19T01:26:24;2.83;;;1.10;;
1811;SDS011;904;47.814;11.134;2023-11-19T01:28:53;2.55;;;1.30;;
1811;SDS011;904;47.814;11.134;2023-11-19T01:31:19;2.20;;;0.90;;
1811;SDS011;904;47.814;11.134;2023-11-19T01:33:46;2.00;;;0.80;;
1811;SDS011;904;47.814;11.134;2023-11-19T01:36:13;2.13;;;1.02;;
1811;SDS011;904;47.814;11.134;2023-11-19T01:38:40;3.00;;;1.00;;
1811;SDS011;904;47.814;11.134;2023-11-19T01:41:07;3.00;;;1.00;;
1811;SDS011;904;47.814;11.134;2023-11-19T01:43:34;2.03;;;1.00;;
1811;SDS011;904;47.814;11.134;2023-11-19T01:46:04;2.10;;;0.90;;
1811;SDS011;904;47.814;11.134;2023-11-19T01:48:34;2.72;;;1.25;;
1811;SDS011;904;47.814;11.134;2023-11-19T01:51:05;2.22;;;0.88;;
1811;SDS011;904;47.814;11.134;2023-11-19T01:53:34;1.95;;;0.77;;
1811;SDS011;904;47.814;11.134;2023-11-19T01:56:03;2.15;;;0.70;;
1811;SDS011;904;47.814;11.134;2023-11-19T01:58:31;4.68;;;1.08;;
1811;SDS011;904;47.814;11.134;2023-11-19T02:00:59;3.45;;;1.13;;
1811;SDS011;904;47.814;11.134;2023-11-19T02:03:30;2.40;;;0.90;;
1811;SDS011;904;47.814;11.134;2023-11-19T02:05:58;2.75;;;1.10;;
1811;SDS011;904;47.814;11.134;2023-11-19T02:08:26;2.20;;;0.98;;
1811;SDS011;904;47.814;11.134;2023-11-19T02:10:53;2.20;;;1.00;;
1811;SDS011;904;47.814;11.134;2023-11-19T02:13:22;2.72;;;0.93;;
1811;SDS011;904;47.814;11.134;2023-11-19T02:15:50;2.15;;;1.00;;
1811;SDS011;904;47.814;11.134;2023-11-19T02:18:17;2.40;;;0.88;;
1811;SDS011;904;47.814;11.134;2023-11-19T02:20:49;3.97;;;1.45;;
1811;SDS011;904;47.814;11.134;2023-11-19T02:23:16;2.15;;;0.90;;
1811;SDS011;904;47.814;11.134;2023-11-19T02:25:47;2.22;;;0.73;;
1811;SDS011;904;47.814;11.134;2023-11-19T02:28:25;2.00;;;0.80;;
1811;SDS011;904;47.814;11.134;2023-11-19T02:30:52;2.33;;;1.02;;
1811;SDS011;904;47.814;11.134;2023-11-19T02:33:19;3.35;;;1.08;;
1811;SDS011;904;47.814;11.134;2023-11-19T02:35:46;2.20;;;0.98;;
1811;SDS011;904;47.814;11.134;2023-11-19T02:38:13;3.85;;;0.93;;
1811;SDS011;904;47.814;11.134;2023-11-19T02:40:40;2.03;;;0.85;;
1811;SDS011;904;47.814;11.134;2023-11-19T02:43:07;1.80;;;0.80;;
1811;SDS011;904;47.814;11.134;2023-11-19T02:45:35;2.17;;;1.15;;
1811;SDS011;904;47.814;11.134;2023-11-19T02:48:03;1.67;;;0.70;;
1811;SDS011;904;47.814;11.134;2023-11-19T02:50:31;2.47;;;0.80;;
1811;SDS011;904;47.814;11.134;2023-11-19T02:52:58;2.22;;;0.93;;
1811;SDS011;904;47.814;11.134;2023-11-19T02:55:26;2.75;;;0.90;;
1811;SDS011;904;47.814;11.134;2023-11-19T02:57:56;2.65;;;1.00;;
1811;SDS011;904;47.814;11.134;2023-11-19T03:00:24;2.15;;;0.80;;
1811;SDS011;904;47.814;11.134;2023-11-19T03:03:02;2.00;;;0.90;;
1811;SDS011;904;47.814;11.134;2023-11-19T03:05:42;2.00;;;0.80;;
1811;SDS011;904;47.814;11.134;2023-11-19T03:08:10;1.83;;;0.90;;
1811;SDS011;904;47.814;11.134;2023-11-19T03:10:37;2.05;;;1.00;;
1811;SDS011;904;47.814;11.134;2023-11-19T03:13:04;2.38;;;1.00;;
1811;SDS011;904;47.814;11.134;2023-11-19T03:15:32;2.00;;;0.80;;
1811;SDS011;904;47.814;11.134;2023-11-19T03:17:59;2.33;;;0.80;;
1811;SDS011;904;47.814;11.134;2023-11-19T03:20:31;2.00;;;0.90;;
1811;SDS011;904;47.814;11.134;2023-11-19T03:22:58;2.90;;;1.20;;
1811;SDS011;904;47.814;11.134;2023-11-19T03:25:24;1.80;;;0.70;;
1811;SDS011;904;47.814;11.134;2023-11-19T03:27:52;3.00;;;1.15;;
1811;SDS011;904;47.814;11.134;2023-11-19T03:30:19;3.17;;;1.20;;
1811;SDS011;904;47.814;11.134;2023-11-19T03:32:47;1.88;;;0.88;;
1811;SDS011;904;47.814;11.134;2023-11-19T03:35:15;3.00;;;0.63;;
1811;SDS011;904;47.814;11.134;2023-11-19T03:37:42;1.70;;;0.63;;
1811;SDS011;904;47.814;11.134;2023-11-19T03:40:10;2.35;;;0.75;;
1811;SDS011;904;47.814;11.134;2023-11-19T03:42:38;1.67;;;0.60;;
1811;SDS011;904;47.814;11.134;2023-11-19T03:45:05;1.80;;;0.70;;
1811;SDS011;904;47.814;11.134;2023-11-19T03:47:33;1.93;;;0.60;;
1811;SDS011;904;47.814;11.134;2023-11-19T03:50:00;1.70;;;0.70;;
1811;SDS011;904;47.814;11.134;2023-11-19T03:52:29;2.10;;;0.70;;
1811;SDS011;904;47.814;11.134;2023-11-19T03:54:56;3.10;;;1.07;;
1811;SDS011;904;47.814;11.134;2023-11-19T03:57:23;2.30;;;0.80;;
1811;SDS011;904;47.814;11.134;2023-11-19T03:59:50;2.17;;;0.70;;
1811;SDS011;904;47.814;11.134;2023-11-19T04:02:17;2.40;;;0.80;;
1811;SDS011;904;47.814;11.134;2023-11-19T04:04:44;1.87;;;0.63;;
1811;SDS011;904;47.814;11.134;2023-11-19T04:07:11;2.20;;;0.70;;
1811;SDS011;904;47.814;11.134;2023-11-19T04:09:39;1.70;;;0.70;;
1811;SDS011;904;47.814;11.134;2023-11-19T04:12:06;2.00;;;0.80;;
1811;SDS011;904;47.814;11.134;2023-11-19T04:14:34;2.13;;;0.87;;
1811;SDS011;904;47.814;11.134;2023-11-19T04:17:03;1.80;;;0.73;;
1811;SDS011;904;47.814;11.134;2023-11-19T04:19:30;1.87;;;0.80;;
1811;SDS011;904;47.814;11.134;2023-11-19T04:21:57;1.87;;;0.70;;
1811;SDS011;904;47.814;11.134;2023-11-19T04:24:24;4.97;;;0.90;;
1811;SDS011;904;47.814;11.134;2023-11-19T04:26:53;2.10;;;0.83;;
1811;SDS011;904;47.814;11.134;2023-11-19T04:29:20;2.10;;;0.70;;
1811;SDS011;904;47.814;11.134;2023-11-19T04:31:47;2.30;;;0.90;;
1811;SDS011;904;47.814;11.134;2023-11-19T04:34:14;1.90;;;0.70;;
1811;SDS011;904;47.814;11.134;2023-11-19T04:36:41;1.80;;;0.70;;
1811;SDS011;904;47.814;11.134;2023-11-19T04:39:09;4.73;;;0.87;;
1811;SDS011;904;47.814;11.134;2023-11-19T04:41:45;2.00;;;0.80;;
1811;SDS011;904;47.814;11.134;2023-11-19T04:44:14;1.70;;;0.60;;
1811;SDS011;904;47.814;11.134;2023-11-19T04:46:41;2.10;;;0.70;;
1811;SDS011;904;47.814;11.134;2023-11-19T04:49:09;1.90;;;0.73;;
1811;SDS011;904;47.814;11.134;2023-11-19T04:51:38;2.00;;;0.70;;
1811;SDS011;904;47.814;11.134;2023-11-19T04:54:06;1.83;;;0.70;;
1811;SDS011;904;47.814;11.134;2023-11-19T04:56:33;5.83;;;0.90;;
1811;SDS011;904;47.814;11.134;2023-11-19T04:59:01;2.90;;;0.83;;
1811;SDS011;904;47.814;11.134;2023-11-19T05:01:29;1.77;;;0.70;;
1811;SDS011;904;47.814;11.134;2023-11-19T05:03:56;1.60;;;0.60;;
1811;SDS011;904;47.814;11.134;2023-11-19T05:06:25;1.70;;;0.60;;
1811;SDS011;904;47.814;11.134;2023-11-19T05:08:54;2.10;;;0.70;;
1811;SDS011;904;47.814;11.134;2023-11-19T05:11:21;1.70;;;0.60;;
1811;SDS011;904;47.814;11.134;2023-11-19T05:13:48;1.70;;;0.70;;
1811;SDS011;904;47.814;11.134;2023-11-19T05:16:15;2.20;;;0.70;;
1811;SDS011;904;47.814;11.134;2023-11-19T05:18:44;1.90;;;0.50;;
1811;SDS011;904;47.814;11.134;2023-11-19T05:21:11;5.57;;;0.60;;
1811;SDS011;904;47.814;11.134;2023-11-19T05:23:38;1.90;;;0.80;;
1811;SDS011;904;47.814;11.134;2023-11-19T05:26:06;1.80;;;0.90;;
1811;SDS011;904;47.814;11.134;2023-11-19T05:28:33;1.93;;;0.70;;
1811;SDS011;904;47.814;11.134;2023-11-19T05:31:00;1.70;;;0.60;;
1811;SDS011;904;47.814;11.134;2023-11-19T05:33:27;2.30;;;0.70;;
1811;SDS011;904;47.814;11.134;2023-11-19T05:35:55;2.07;;;0.70;;
1811;SDS011;904;47.814;11.134;2023-11-19T05:38:22;2.30;;;0.80;;
1811;SDS011;904;47.814;11.134;2023-11-19T05:40:49;1.83;;;0.77;;
1811;SDS011;904;47.814;11.134;2023-11-19T05:43:16;1.60;;;0.60;;
1811;SDS011;904;47.814;11.134;2023-11-19T05:45:43;1.70;;;0.60;;
1811;SDS011;904;47.814;11.134;2023-11-19T05:48:09;1.70;;;0.60;;
1811;SDS011;904;47.814;11.134;2023-11-19T05:50:36;1.80;;;0.80;;
1811;SDS011;904;47.814;11.134;2023-11-19T05:53:05;1.60;;;0.50;;
1811;SDS011;904;47.814;11.134;2023-11-19T05:55:35;1.70;;;0.60;;
1811;SDS011;904;47.814;11.134;2023-11-19T05:58:09;2.13;;;0.70;;
1811;SDS011;904;47.814;11.134;2023-11-19T06:00:37;1.70;;;0.60;;
1811;SDS011;904;47.814;11.134;2023-11-19T06:03:05;1.60;;;0.60;;
1811;SDS011;904;47.814;11.134;2023-11-19T06:05:32;1.70;;;0.60;;
1811;SDS011;904;47.814;11.134;2023-11-19T06:07:58;2.43;;;0.60;;
1811;SDS011;904;47.814;11.134;2023-11-19T06:10:27;1.80;;;0.60;;
1811;SDS011;904;47.814;11.134;2023-11-19T06:12:56;1.67;;;0.60;;
1811;SDS011;904;47.814;11.134;2023-11-19T06:15:24;1.53;;;0.50;;
1811;SDS011;904;47.814;11.134;2023-11-19T06:17:52;1.70;;;0.60;;
1811;SDS011;904;47.814;11.134;2023-11-19T06:20:19;1.70;;;0.60;;
1811;SDS011;904;47.814;11.134;2023-11-19T06:22:46;1.90;;;0.80;;
1811;SDS011;904;47.814;11.134;2023-11-19T06:25:14;1.80;;;0.60;;
1811;SDS011;904;47.814;11.134;2023-11-19T06:27:42;1.80;;;0.60;;
1811;SDS011;904;47.814;11.134;2023-11-19T06:30:10;1.60;;;0.50;;
1811;SDS011;904;47.814;11.134;2023-11-19T06:32:37;1.60;;;0.50;;
1811;SDS011;904;47.814;11.134;2023-11-19T06:35:05;1.70;;;0.70;;
1811;SDS011;904;47.814;11.134;2023-11-19T06:37:32;1.60;;;0.50;;
1811;SDS011;904;47.814;11.134;2023-11-19T06:39:59;1.70;;;0.60;;
1811;SDS011;904;47.814;11.134;2023-11-19T06:42:26;1.80;;;0.60;;
1811;SDS011;904;47.814;11.134;2023-11-19T06:44:54;1.80;;;0.83;;
1811;SDS011;904;47.814;11.134;2023-11-19T06:47:22;1.70;;;0.80;;
1811;SDS011;904;47.814;11.134;2023-11-19T06:49:51;1.60;;;0.50;;
1811;SDS011;904;47.814;11.134;2023-11-19T06:52:18;2.23;;;0.60;;
1811;SDS011;904;47.814;11.134;2023-11-19T06:54:45;1.60;;;0.60;;
1811;SDS011;904;47.814;11.134;2023-11-19T06:57:13;1.80;;;0.50;;
1811;SDS011;904;47.814;11.134;2023-11-19T06:59:40;1.80;;;0.70;;
1811;SDS011;904;47.814;11.134;2023-11-19T07:02:08;1.60;;;0.60;;
1811;SDS011;904;47.814;11.134;2023-11-19T07:04:35;1.97;;;0.70;;
1811;SDS011;904;47.814;11.134;2023-11-19T07:07:02;1.80;;;0.60;;
1811;SDS011;904;47.814;11.134;2023-11-19T07:09:30;1.70;;;0.60;;
1811;SDS011;904;47.814;11.134;2023-11-19T07:11:57;1.70;;;0.50;;
1811;SDS011;904;47.814;11.134;2023-11-19T07:14:26;1.70;;;0.60;;
1811;SDS011;904;47.814;11.134;2023-11-19T07:16:53;2.80;;;0.60;;
1811;SDS011;904;47.814;11.134;2023-11-19T07:19:22;1.70;;;0.60;;
1811;SDS011;904;47.814;11.134;2023-11-19T07:21:49;1.70;;;0.60;;
1811;SDS011;904;47.814;11.134;2023-11-19T07:24:16;2.10;;;0.67;;
1811;SDS011;904;47.814;11.134;2023-11-19T07:26:43;1.70;;;0.60;;
1811;SDS011;904;47.814;11.134;2023-11-19T07:29:12;2.57;;;0.60;;
1811;SDS011;904;47.814;11.134;2023-11-19T07:31:40;1.70;;;0.70;;
1811;SDS011;904;47.814;11.134;2023-11-19T07:34:07;1.83;;;0.60;;
1811;SDS011;904;47.814;11.134;2023-11-19T07:36:35;1.70;;;0.57;;
1811;SDS011;904;47.814;11.134;2023-11-19T07:39:03;1.90;;;0.80;;
1811;SDS011;904;47.814;11.134;2023-11-19T07:41:30;1.77;;;0.60;;
1811;SDS011;904;47.814;11.134;2023-11-19T07:43:57;1.73;;;0.70;;
1811;SDS011;904;47.814;11.134;2023-11-19T07:46:24;1.80;;;0.60;;
1811;SDS011;904;47.814;11.134;2023-11-19T07:48:52;1.70;;;0.50;;
1811;SDS011;904;47.814;11.134;2023-11-19T07:51:19;1.97;;;0.60;;
1811;SDS011;904;47.814;11.134;2023-11-19T07:53:48;1.60;;;0.60;;
1811;SDS011;904;47.814;11.134;2023-11-19T07:56:15;2.53;;;0.70;;
1811;SDS011;904;47.814;11.134;2023-11-19T07:58:42;2.50;;;1.30;;
1811;SDS011;904;47.814;11.134;2023-11-19T08:01:09;1.90;;;0.60;;
1811;SDS011;904;47.814;11.134;2023-11-19T08:03:36;1.80;;;0.60;;
1811;SDS011;904;47.814;11.134;2023-11-19T08:06:05;1.73;;;0.53;;
1811;SDS011;904;47.814;11.134;2023-11-19T08:08:33;1.67;;;0.50;;
1811;SDS011;904;47.814;11.134;2023-11-19T08:11:01;1.80;;;0.70;;
1811;SDS011;904;47.814;11.134;2023-11-19T08:13:30;1.70;;;0.60;;
1811;SDS011;904;47.814;11.134;2023-11-19T08:15:56;1.80;;;0.70;;
1811;SDS011;904;47.814;11.134;2023-11-19T08:18:24;2.00;;;0.73;;
1811;SDS011;904;47.814;11.134;2023-11-19T08:20:51;1.87;;;0.60;;
1811;SDS011;904;47.814;11.134;2023-11-19T08:23:18;1.90;;;0.70;;
1811;SDS011;904;47.814;11.134;2023-11-19T08:25:45;1.80;;;0.60;;
1811;SDS011;904;47.814;11.134;2023-11-19T08:28:14;1.70;;;0.50;;
1811;SDS011;904;47.814;11.134;2023-11-19T08:30:41;1.90;;;0.73;;
1811;SDS011;904;47.814;11.134;2023-11-19T08:33:09;1.70;;;0.53;;
1811;SDS011;904;47.814;11.134;2023-11-19T08:35:36;2.00;;;0.57;;
1811;SDS011;904;47.814;11.134;2023-11-19T08:38:03;2.10;;;1.03;;
1811;SDS011;904;47.814;11.134;2023-11-19T08:40:30;1.70;;;0.70;;
1811;SDS011;904;47.814;11.134;2023-11-19T08:42:57;1.93;;;0.60;;
1811;SDS011;904;47.814;11.134;2023-11-19T08:45:26;2.60;;;0.80;;
1811;SDS011;904;47.814;11.134;2023-11-19T08:47:53;1.90;;;0.80;;
1811;SDS011;904;47.814;11.134;2023-11-19T08:50:20;1.60;;;0.60;;
1811;SDS011;904;47.814;11.134;2023-11-19T08:52:47;2.30;;;0.70;;
1811;SDS011;904;47.814;11.134;2023-11-19T08:55:14;2.40;;;0.90;;
1811;SDS011;904;47.814;11.134;2023-11-19T08:57:41;1.90;;;0.80;;
1811;SDS011;904;47.814;11.134;2023-11-19T09:00:09;1.80;;;0.70;;
1811;SDS011;904;47.814;11.134;2023-11-19T09:02:40;2.17;;;0.80;;
1811;SDS011;904;47.814;11.134;2023-11-19T09:05:08;2.20;;;0.80;;
1811;SDS011;904;47.814;11.134;2023-11-19T09:07:35;2.50;;;0.80;;
1811;SDS011;904;47.814;11.134;2023-11-19T09:10:02;3.20;;;0.90;;
1811;SDS011;904;47.814;11.134;2023-11-19T09:12:30;1.60;;;0.60;;
1811;SDS011;904;47.814;11.134;2023-11-19T09:14:57;1.80;;;0.63;;
1811;SDS011;904;47.814;11.134;2023-11-19T09:17:24;1.70;;;0.60;;
1811;SDS011;904;47.814;11.134;2023-11-19T09:19:53;1.73;;;0.60;;
1811;SDS011;904;47.814;11.134;2023-11-19T09:22:20;2.13;;;0.70;;
1811;SDS011;904;47.814;11.134;2023-11-19T09:24:49;2.03;;;0.90;;
1811;SDS011;904;47.814;11.134;2023-11-19T09:27:16;2.00;;;0.80;;
1811;SDS011;904;47.814;11.134;2023-11-19T09:29:43;2.90;;;1.00;;
1811;SDS011;904;47.814;11.134;2023-11-19T09:32:11;2.40;;;0.90;;
1811;SDS011;904;47.814;11.134;2023-11-19T09:34:38;2.90;;;1.20;;
1811;SDS011;904;47.814;11.134;2023-11-19T09:37:07;2.70;;;1.10;;
1811;SDS011;904;47.814;11.134;2023-11-19T09:39:34;2.20;;;0.70;;
1811;SDS011;904;47.814;11.134;2023-11-19T09:42:01;2.73;;;0.70;;
1811;SDS011;904;47.814;11.134;2023-11-19T09:44:28;1.90;;;0.70;;
1811;SDS011;904;47.814;11.134;2023-11-19T09:46:56;4.60;;;0.70;;
1811;SDS011;904;47.814;11.134;2023-11-19T09:49:24;3.13;;;1.33;;
1811;SDS011;904;47.814;11.134;2023-11-19T09:51:53;1.67;;;0.57;;
1811;SDS011;904;47.814;11.134;2023-11-19T09:54:22;1.80;;;0.70;;
1811;SDS011;904;47.814;11.134;2023-11-19T09:56:49;1.73;;;0.60;;
1811;SDS011;904;47.814;11.134;2023-11-19T09:59:17;1.80;;;0.60;;
1811;SDS011;904;47.814;11.134;2023-11-19T10:01:45;1.80;;;0.50;;
1811;SDS011;904;47.814;11.134;2023-11-19T10:04:13;1.60;;;0.50;;
1811;SDS011;904;47.814;11.134;2023-11-19T10:06:42;1.70;;;0.50;;
1811;SDS011;904;47.814;11.134;2023-11-19T10:09:11;3.43;;;0.80;;
1811;SDS011;904;47.814;11.134;2023-11-19T10:11:44;2.00;;;0.50;;
1811;SDS011;904;47.814;11.134;2023-11-19T10:14:12;1.70;;;0.50;;
1811;SDS011;904;47.814;11.134;2023-11-19T10:16:40;1.80;;;0.60;;
1811;SDS011;904;47.814;11.134;2023-11-19T10:19:08;1.80;;;0.70;;
1811;SDS011;904;47.814;11.134;2023-11-19T10:21:45;2.23;;;0.70;;
1811;SDS011;904;47.814;11.134;2023-11-19T10:24:12;1.93;;;0.70;;
1811;SDS011;904;47.814;11.134;2023-11-19T10:26:39;1.80;;;0.80;;
1811;SDS011;904;47.814;11.134;2023-11-19T10:29:09;1.80;;;0.50;;
1811;SDS011;904;47.814;11.134;2023-11-19T10:31:39;1.60;;;0.50;;
1811;SDS011;904;47.814;11.134;2023-11-19T10:34:11;1.70;;;0.50;;
1811;SDS011;904;47.814;11.134;2023-11-19T10:36:52;1.70;;;0.60;;
1811;SDS011;904;47.814;11.134;2023-11-19T10:39:19;1.63;;;0.50;;
1811;SDS011;904;47.814;11.134;2023-11-19T10:41:48;1.80;;;0.60;;
1811;SDS011;904;47.814;11.134;2023-11-19T10:47:11;1.80;;;0.60;;
1811;SDS011;904;47.814;11.134;2023-11-19T10:49:42;1.63;;;0.50;;
1811;SDS011;904;47.814;11.134;2023-11-19T10:52:10;1.70;;;0.60;;
1811;SDS011;904;47.814;11.134;2023-11-19T10:54:43;2.03;;;0.60;;
1811;SDS011;904;47.814;11.134;2023-11-19T10:57:15;1.67;;;0.50;;
1811;SDS011;904;47.814;11.134;2023-11-19T10:59:46;1.93;;;0.70;;
1811;SDS011;904;47.814;11.134;2023-11-19T11:02:18;1.70;;;0.60;;
1811;SDS011;904;47.814;11.134;2023-11-19T11:04:50;1.90;;;0.67;;
1811;SDS011;904;47.814;11.134;2023-11-19T11:07:18;1.90;;;0.80;;
1811;SDS011;904;47.814;11.134;2023-11-19T11:09:51;1.90;;;0.70;;
1811;SDS011;904;47.814;11.134;2023-11-19T11:12:19;3.13;;;0.50;;
1811;SDS011;904;47.814;11.134;2023-11-19T11:14:49;1.73;;;0.50;;
1811;SDS011;904;47.814;11.134;2023-11-19T11:17:17;1.60;;;0.40;;
1811;SDS011;904;47.814;11.134;2023-11-19T11:19:46;1.80;;;0.50;;
1811;SDS011;904;47.814;11.134;2023-11-19T11:22:13;1.70;;;0.60;;
1811;SDS011;904;47.814;11.134;2023-11-19T11:24:50;1.80;;;0.50;;
1811;SDS011;904;47.814;11.134;2023-11-19T11:30:37;1.90;;;0.50;;
1811;SDS011;904;47.814;11.134;2023-11-19T11:33:23;1.80;;;0.57;;
1811;SDS011;904;47.814;11.134;2023-11-19T11:36:02;1.70;;;0.50;;
1811;SDS011;904;47.814;11.134;2023-11-19T11:38:39;1.70;;;0.60;;
1811;SDS011;904;47.814;11.134;2023-11-19T11:41:17;1.80;;;0.57;;
1811;SDS011;904;47.814;11.134;2023-11-19T11:43:49;2.00;;;0.50;;
1811;SDS011;904;47.814;11.134;2023-11-19T11:49:27;1.60;;;0.50;;
1811;SDS011;904;47.814;11.134;2023-11-19T11:51:59;1.67;;;0.50;;
1811;SDS011;904;47.814;11.134;2023-11-19T11:54:28;1.83;;;0.50;;
1811;SDS011;904;47.814;11.134;2023-11-19T11:57:02;1.60;;;0.50;;
1811;SDS011;904;47.814;11.134;2023-11-19T11:59:36;2.20;;;0.70;;
1811;SDS011;904;47.814;11.134;2023-11-19T12:02:13;1.80;;;0.60;;
1811;SDS011;904;47.814;11.134;2023-11-19T12:04:45;1.80;;;0.57;;
1811;SDS011;904;47.814;11.134;2023-11-19T12:07:17;2.47;;;0.90;;
1811;SDS011;904;47.814;11.134;2023-11-19T12:09:47;1.67;;;0.50;;
1811;SDS011;904;47.814;11.134;2023-11-19T12:12:17;3.30;;;0.60;;
1811;SDS011;904;47.814;11.134;2023-11-19T12:15:02;2.00;;;0.70;;
1811;SDS011;904;47.814;11.134;2023-11-19T12:17:36;2.10;;;0.60;;
1811;SDS011;904;47.814;11.134;2023-11-19T12:20:11;1.70;;;0.50;;
1811;SDS011;904;47.814;11.134;2023-11-19T12:22:39;2.50;;;0.70;;
1811;SDS011;904;47.814;11.134;2023-11-19T12:25:08;2.00;;;0.50;;
1811;SDS011;904;47.814;11.134;2023-11-19T12:27:36;1.80;;;0.60;;
1811;SDS011;904;47.814;11.134;2023-11-19T12:30:05;1.80;;;0.60;;
1811;SDS011;904;47.814;11.134;2023-11-19T12:32:37;1.70;;;0.60;;
1811;SDS011;904;47.814;11.134;2023-11-19T12:35:05;3.70;;;1.00;;
1811;SDS011;904;47.814;11.134;2023-11-19T12:37:40;1.90;;;0.60;;
1811;SDS011;904;47.814;11.134;2023-11-19T12:40:15;2.07;;;0.70;;
1811;SDS011;904;47.814;11.134;2023-11-19T12:42:44;1.80;;;0.60;;
1811;SDS011;904;47.814;11.134;2023-11-19T12:45:11;1.80;;;0.60;;
1811;SDS011;904;47.814;11.134;2023-11-19T12:47:40;1.93;;;0.60;;
1811;SDS011;904;47.814;11.134;2023-11-19T12:50:08;1.90;;;0.60;;
1811;SDS011;904;47.814;11.134;2023-11-19T12:52:36;1.70;;;0.50;;
1811;SDS011;904;47.814;11.134;2023-11-19T12:55:06;1.73;;;0.60;;
1811;SDS011;904;47.814;11.134;2023-11-19T12:57:51;1.90;;;0.70;;
1811;SDS011;904;47.814;11.134;2023-11-19T13:00:19;3.50;;;0.70;;
1811;SDS011;904;47.814;11.134;2023-11-19T13:02:48;1.60;;;0.50;;
1811;SDS011;904;47.814;11.134;2023-11-19T13:05:23;1.80;;;0.60;;
1811;SDS011;904;47.814;11.134;2023-11-19T13:07:58;1.70;;;0.60;;
1811;SDS011;904;47.814;11.134;2023-11-19T13:10:28;1.70;;;0.60;;
1811;SDS011;904;47.814;11.134;2023-11-19T13:13:05;2.10;;;0.70;;
1811;SDS011;904;47.814;11.134;2023-11-19T13:15:37;3.83;;;0.80;;
1811;SDS011;904;47.814;11.134;2023-11-19T13:18:05;2.23;;;0.90;;
1811;SDS011;904;47.814;11.134;2023-11-19T13:20:33;2.10;;;0.80;;
1811;SDS011;904;47.814;11.134;2023-11-19T13:23:00;2.40;;;0.80;;
1811;SDS011;904;47.814;11.134;2023-11-19T13:25:30;1.90;;;0.60;;
1811;SDS011;904;47.814;11.134;2023-11-19T13:27:58;1.97;;;0.60;;
1811;SDS011;904;47.814;11.134;2023-11-19T13:30:26;1.67;;;0.50;;
1811;SDS011;904;47.814;11.134;2023-11-19T13:32:54;1.70;;;0.60;;
1811;SDS011;904;47.814;11.134;2023-11-19T13:35:21;1.70;;;0.50;;
1811;SDS011;904;47.814;11.134;2023-11-19T13:37:49;3.90;;;0.60;;
1811;SDS011;904;47.814;11.134;2023-11-19T13:40:17;2.20;;;0.80;;
1811;SDS011;904;47.814;11.134;2023-11-19T13:42:49;2.10;;;0.60;;
1811;SDS011;904;47.814;11.134;2023-11-19T13:45:20;2.07;;;0.83;;
1811;SDS011;904;47.814;11.134;2023-11-19T13:47:47;2.13;;;0.70;;
1811;SDS011;904;47.814;11.134;2023-11-19T13:50:15;2.37;;;0.77;;
1811;SDS011;904;47.814;11.134;2023-11-19T13:52:43;1.70;;;0.50;;
1811;SDS011;904;47.814;11.134;2023-11-19T13:55:12;1.80;;;0.60;;
1811;SDS011;904;47.814;11.134;2023-11-19T13:57:40;1.93;;;0.57;;
1811;SDS011;904;47.814;11.134;2023-11-19T14:00:11;2.20;;;0.80;;
1811;SDS011;904;47.814;11.134;2023-11-19T14:02:41;3.07;;;1.00;;
1811;SDS011;904;47.814;11.134;2023-11-19T14:05:09;2.10;;;0.67;;
1811;SDS011;904;47.814;11.134;2023-11-19T14:07:40;5.40;;;0.80;;
1811;SDS011;904;47.814;11.134;2023-11-19T14:10:08;3.40;;;1.83;;
1811;SDS011;904;47.814;11.134;2023-11-19T14:12:36;2.30;;;0.80;;
1811;SDS011;904;47.814;11.134;2023-11-19T14:15:04;2.00;;;0.90;;
1811;SDS011;904;47.814;11.134;2023-11-19T14:17:34;2.13;;;0.90;;
1811;SDS011;904;47.814;11.134;2023-11-19T14:20:02;2.00;;;0.70;;
1811;SDS011;904;47.814;11.134;2023-11-19T14:22:38;2.30;;;0.80;;
1811;SDS011;904;47.814;11.134;2023-11-19T14:25:06;1.90;;;0.70;;
1811;SDS011;904;47.814;11.134;2023-11-19T14:27:36;1.90;;;0.67;;
1811;SDS011;904;47.814;11.134;2023-11-19T14:30:04;1.90;;;0.97;;
1811;SDS011;904;47.814;11.134;2023-11-19T14:32:36;2.57;;;0.90;;
1811;SDS011;904;47.814;11.134;2023-11-19T14:35:04;2.20;;;0.83;;
1811;SDS011;904;47.814;11.134;2023-11-19T14:37:32;1.77;;;0.60;;
1811;SDS011;904;47.814;11.134;2023-11-19T14:39:59;2.33;;;0.90;;
1811;SDS011;904;47.814;11.134;2023-11-19T14:42:29;2.17;;;0.77;;
1811;SDS011;904;47.814;11.134;2023-11-19T14:44:56;1.90;;;0.67;;
1811;SDS011;904;47.814;11.134;2023-11-19T14:47:24;2.90;;;0.80;;
1811;SDS011;904;47.814;11.134;2023-11-19T14:49:53;1.90;;;0.70;;
1811;SDS011;904;47.814;11.134;2023-11-19T14:52:21;1.77;;;0.60;;
1811;SDS011;904;47.814;11.134;2023-11-19T14:54:48;1.90;;;0.70;;
1811;SDS011;904;47.814;11.134;2023-11-19T14:57:16;1.80;;;0.60;;
1811;SDS011;904;47.814;11.134;2023-11-19T14:59:43;2.00;;;0.93;;
1811;SDS011;904;47.814;11.134;2023-11-19T15:02:11;2.00;;;0.80;;
1811;SDS011;904;47.814;11.134;2023-11-19T15:04:38;1.87;;;0.70;;
1811;SDS011;904;47.814;11.134;2023-11-19T15:07:11;2.00;;;0.77;;
1811;SDS011;904;47.814;11.134;2023-11-19T15:09:38;1.80;;;0.70;;
1811;SDS011;904;47.814;11.134;2023-11-19T15:12:06;2.50;;;1.00;;
1811;SDS011;904;47.814;11.134;2023-11-19T15:14:33;2.73;;;0.80;;
1811;SDS011;904;47.814;11.134;2023-11-19T15:17:01;2.30;;;0.70;;
1811;SDS011;904;47.814;11.134;2023-11-19T15:19:28;4.57;;;1.53;;
1811;SDS011;904;47.814;11.134;2023-11-19T15:21:55;2.20;;;0.80;;
1811;SDS011;904;47.814;11.134;2023-11-19T15:24:23;2.07;;;0.90;;
1811;SDS011;904;47.814;11.134;2023-11-19T15:26:51;2.20;;;1.10;;
1811;SDS011;904;47.814;11.134;2023-11-19T15:29:18;3.50;;;0.80;;
1811;SDS011;904;47.814;11.134;2023-11-19T15:31:45;3.50;;;1.77;;